Time;durP1;ratioP1;P1;durP2;ratioP2;P2;SDS_P1;SDS_P2;PMS_P1;PMS_P2;Temp;Humidity;BMP_temperature;BMP_pressure;BME280_temperature;BME280_humidity;BME280_pressure;Samples;Min_cycle;Max_cycle;Signal;HPM_P1;HPM_P2
2023/12/18 00:00:17;;;;;;;17.90;8.32;;;8.20;99.90;;;;;;5033432;28;20041;-53
2023/12/18 00:02:43;;;;;;;18.48;8.50;;;8.30;99.90;;;;;;5032513;28;20030;-61
2023/12/18 00:05:09;;;;;;;29.60;9.00;;;8.30;99.90;;;;;;5033469;28;20037;-75
2023/12/18 00:07:35;;;;;;;21.95;6.95;;;8.20;99.90;;;;;;5033240;28;20040;-55
2023/12/18 00:10:01;;;;;;;19.67;8.13;;;8.20;99.90;;;;;;5032401;28;20053;-55
2023/12/18 00:12:26;;;;;;;25.48;8.02;;;8.20;99.90;;;;;;5033243;28;20406;-55
2023/12/18 00:14:52;;;;;;;21.50;8.02;;;8.20;99.90;;;;;;5033477;28;20030;-54
2023/12/18 00:17:18;;;;;;;24.13;8.63;;;8.20;99.90;;;;;;5033364;28;20437;-56
2023/12/18 00:19:44;;;;;;;17.25;7.57;;;8.20;99.90;;;;;;5033404;28;20041;-48
2023/12/18 00:22:09;;;;;;;15.73;8.10;;;8.20;99.90;;;;;;5033533;28;20033;-55
2023/12/18 00:24:35;;;;;;;17.65;8.18;;;8.20;99.90;;;;;;5032910;28;20040;-54
2023/12/18 00:27:01;;;;;;;24.60;9.50;;;8.20;99.90;;;;;;5032217;28;20033;-55
2023/12/18 00:29:26;;;;;;;23.90;7.63;;;8.20;99.90;;;;;;5033622;28;20026;-55
2023/12/18 00:31:52;;;;;;;22.88;7.93;;;8.20;99.90;;;;;;5045569;28;20032;-52
2023/12/18 00:34:18;;;;;;;22.40;8.10;;;8.20;99.90;;;;;;5041061;28;20120;-56
2023/12/18 00:36:44;;;;;;;19.33;8.75;;;8.20;99.90;;;;;;5032962;28;20417;-55
2023/12/18 00:39:11;;;;;;;20.45;8.57;;;8.20;99.90;;;;;;5032400;28;20025;-55
2023/12/18 00:41:37;;;;;;;23.45;8.60;;;8.20;99.90;;;;;;5032171;28;20072;-54
2023/12/18 00:44:03;;;;;;;22.27;8.35;;;8.20;99.90;;;;;;5032783;28;20506;-55
2023/12/18 00:46:29;;;;;;;26.52;9.10;;;8.20;99.90;;;;;;5033033;28;20524;-54
2023/12/18 00:48:54;;;;;;;23.42;8.48;;;8.20;99.90;;;;;;5029265;28;20030;-51
2023/12/18 00:51:20;;;;;;;26.63;8.63;;;8.20;99.90;;;;;;5021396;28;20030;-56
2023/12/18 00:53:46;;;;;;;31.00;8.52;;;8.20;99.90;;;;;;5032102;28;20080;-53
2023/12/18 00:56:12;;;;;;;21.48;8.35;;;8.20;99.90;;;;;;5032915;28;20025;-56
2023/12/18 00:58:38;;;;;;;24.98;8.23;;;8.10;99.90;;;;;;5031129;28;20022;-52
2023/12/18 01:01:04;;;;;;;31.30;8.00;;;8.20;99.90;;;;;;5032235;28;20032;-58
2023/12/18 01:03:30;;;;;;;26.38;9.15;;;8.20;99.90;;;;;;5032436;28;20031;-53
2023/12/18 01:05:56;;;;;;;25.55;8.85;;;8.20;99.90;;;;;;5032514;28;20030;-53
2023/12/18 01:08:21;;;;;;;21.45;7.97;;;8.20;99.90;;;;;;5031831;28;20048;-57
2023/12/18 01:10:48;;;;;;;16.98;6.97;;;8.20;99.90;;;;;;5022183;28;20045;-55
2023/12/18 01:13:13;;;;;;;22.65;8.50;;;8.20;99.90;;;;;;5032709;28;20394;-52
2023/12/18 01:15:39;;;;;;;19.15;7.57;;;8.30;99.90;;;;;;5032682;28;20026;-40
2023/12/18 01:18:05;;;;;;;23.75;7.70;;;8.30;99.90;;;;;;5028096;28;20029;-41
2023/12/18 01:20:30;;;;;;;17.83;8.48;;;8.20;99.90;;;;;;5011737;28;20030;-42
2023/12/18 01:22:56;;;;;;;27.58;8.70;;;8.20;99.90;;;;;;5017409;28;20458;-45
2023/12/18 01:25:22;;;;;;;21.50;8.70;;;8.20;99.90;;;;;;5032508;28;20104;-42
2023/12/18 01:27:47;;;;;;;21.08;7.97;;;8.20;99.90;;;;;;5032299;28;20517;-40
2023/12/18 01:30:13;;;;;;;23.30;8.13;;;8.20;99.90;;;;;;5032480;28;20072;-40
2023/12/18 01:32:39;;;;;;;21.52;7.82;;;8.20;99.90;;;;;;5032279;28;20013;-40
2023/12/18 01:35:05;;;;;;;18.35;8.23;;;8.20;99.90;;;;;;5032443;28;20061;-40
2023/12/18 01:37:30;;;;;;;23.65;7.40;;;8.20;99.90;;;;;;5032163;28;20100;-55
2023/12/18 01:39:57;;;;;;;24.33;8.23;;;8.30;99.90;;;;;;5032048;28;20018;-54
2023/12/18 01:42:23;;;;;;;19.38;8.18;;;8.30;99.90;;;;;;5031048;28;20026;-66
2023/12/18 01:44:48;;;;;;;16.35;8.35;;;8.30;99.90;;;;;;5032461;28;20032;-42
2023/12/18 01:47:16;;;;;;;19.92;7.55;;;8.30;99.90;;;;;;5032126;28;20025;-47
2023/12/18 01:49:42;;;;;;;25.20;7.13;;;8.30;99.90;;;;;;5031520;28;20470;-40
2023/12/18 01:52:10;;;;;;;19.67;8.90;;;8.30;99.90;;;;;;5031902;28;20027;-73
2023/12/18 01:54:36;;;;;;;18.60;7.80;;;8.30;99.90;;;;;;5027624;28;20029;-41
2023/12/18 01:57:04;;;;;;;15.57;8.93;;;8.40;99.90;;;;;;5031948;28;20474;-41
2023/12/18 01:59:32;;;;;;;18.00;7.90;;;8.40;99.90;;;;;;5031367;28;20478;-40
2023/12/18 02:01:58;;;;;;;22.38;8.55;;;8.30;99.90;;;;;;5032312;28;20466;-40
2023/12/18 02:04:25;;;;;;;21.85;7.47;;;8.40;99.90;;;;;;5062498;28;20037;-44
2023/12/18 02:06:50;;;;;;;19.75;7.03;;;8.40;99.90;;;;;;5031875;28;20025;-41
2023/12/18 02:09:16;;;;;;;15.60;6.53;;;8.40;99.90;;;;;;5032088;28;20371;-42
2023/12/18 02:11:45;;;;;;;23.27;7.53;;;8.40;99.90;;;;;;5032076;28;20029;-46
2023/12/18 02:14:11;;;;;;;14.15;7.30;;;8.50;99.90;;;;;;5031911;28;20068;-42
2023/12/18 02:16:37;;;;;;;15.85;7.47;;;8.50;99.90;;;;;;5019655;28;20065;-43
2023/12/18 02:19:03;;;;;;;17.95;7.80;;;8.40;99.90;;;;;;5030157;28;20064;-39
2023/12/18 02:21:29;;;;;;;13.95;6.93;;;8.50;99.90;;;;;;5035555;28;20034;-40
2023/12/18 02:23:54;;;;;;;19.85;7.75;;;8.50;99.90;;;;;;5035416;28;20168;-40
2023/12/18 02:26:21;;;;;;;17.00;6.55;;;8.50;99.90;;;;;;5034981;28;20025;-40
2023/12/18 02:28:47;;;;;;;11.95;7.22;;;8.50;99.90;;;;;;5035646;28;20549;-41
2023/12/18 02:31:14;;;;;;;15.05;7.18;;;8.50;99.90;;;;;;5035152;28;20105;-39
2023/12/18 02:33:48;;;;;;;20.33;7.63;;;8.50;99.90;;;;;;5033732;28;20397;-50
2023/12/18 02:36:13;;;;;;;14.77;7.43;;;8.50;99.90;;;;;;5035454;28;20021;-55
2023/12/18 02:38:39;;;;;;;16.50;7.13;;;8.50;99.90;;;;;;5034569;28;20052;-53
2023/12/18 02:41:05;;;;;;;24.42;7.53;;;8.50;99.90;;;;;;5035337;28;20402;-54
2023/12/18 02:43:30;;;;;;;18.38;7.28;;;8.50;99.90;;;;;;5035052;28;20062;-54
2023/12/18 02:45:56;;;;;;;19.10;8.63;;;8.40;99.90;;;;;;5034736;28;20022;-53
2023/12/18 02:48:21;;;;;;;20.52;8.32;;;8.40;99.90;;;;;;5035151;28;20036;-56
2023/12/18 02:50:47;;;;;;;20.92;7.38;;;8.50;99.90;;;;;;5026500;28;20525;-61
2023/12/18 02:53:14;;;;;;;16.20;7.80;;;8.50;99.90;;;;;;5023030;28;20022;-55
2023/12/18 02:55:40;;;;;;;14.88;6.75;;;8.50;99.90;;;;;;5035390;28;20478;-54
2023/12/18 02:58:06;;;;;;;13.27;7.15;;;8.60;99.90;;;;;;5035040;28;20037;-55
2023/12/18 03:00:35;;;;;;;16.63;7.03;;;8.50;99.90;;;;;;5033167;28;20029;-53
2023/12/18 03:03:00;;;;;;;15.23;6.63;;;8.60;99.90;;;;;;5034761;28;20486;-55
2023/12/18 03:05:26;;;;;;;14.10;6.25;;;8.50;99.90;;;;;;5033613;28;20078;-54
2023/12/18 03:07:51;;;;;;;14.05;6.70;;;8.50;99.90;;;;;;5066119;28;20033;-54
2023/12/18 03:10:17;;;;;;;18.38;7.50;;;8.60;99.90;;;;;;5033965;28;20133;-56
2023/12/18 03:12:43;;;;;;;18.90;8.25;;;8.60;99.90;;;;;;5034287;28;20387;-51
2023/12/18 03:15:09;;;;;;;24.30;8.25;;;8.60;99.90;;;;;;5033969;28;20075;-54
2023/12/18 03:17:35;;;;;;;18.95;7.70;;;8.60;99.90;;;;;;5034233;28;20022;-56
2023/12/18 03:20:00;;;;;;;19.63;8.05;;;8.60;99.90;;;;;;5034604;28;20088;-54
2023/12/18 03:22:26;;;;;;;16.95;6.38;;;8.60;99.90;;;;;;5032722;28;20397;-54
2023/12/18 03:24:52;;;;;;;14.50;6.97;;;8.70;99.90;;;;;;5034308;28;20025;-54
2023/12/18 03:27:17;;;;;;;21.38;7.05;;;8.70;99.90;;;;;;5034305;28;20386;-55
2023/12/18 03:29:43;;;;;;;19.38;7.30;;;8.70;99.90;;;;;;5034500;28;20034;-56
2023/12/18 03:32:08;;;;;;;19.67;7.93;;;8.70;99.90;;;;;;5033901;28;20025;-53
2023/12/18 03:34:34;;;;;;;15.93;7.28;;;8.60;99.90;;;;;;5034199;28;20493;-55
2023/12/18 03:37:00;;;;;;;12.98;6.93;;;8.60;99.90;;;;;;5034029;28;20108;-56
2023/12/18 03:39:25;;;;;;;21.77;8.68;;;8.70;99.90;;;;;;5033721;28;20104;-52
2023/12/18 03:41:51;;;;;;;19.27;6.47;;;8.70;99.90;;;;;;5034172;28;20482;-40
2023/12/18 03:44:17;;;;;;;23.05;7.32;;;8.60;99.90;;;;;;5034330;28;20382;-56
2023/12/18 03:46:43;;;;;;;17.70;5.70;;;8.60;99.90;;;;;;5021526;28;20034;-41
2023/12/18 03:49:08;;;;;;;20.10;7.32;;;8.60;99.90;;;;;;5014484;28;20022;-41
2023/12/18 03:51:34;;;;;;;15.32;7.50;;;8.70;99.90;;;;;;5033801;28;20116;-46
2023/12/18 03:54:00;;;;;;;14.82;7.38;;;8.70;99.90;;;;;;5026510;28;20540;-41
2023/12/18 03:56:25;;;;;;;17.52;7.68;;;8.70;99.90;;;;;;5033939;28;20028;-44
2023/12/18 03:58:51;;;;;;;14.70;6.57;;;8.70;99.90;;;;;;5033541;28;20051;-43
2023/12/18 04:01:16;;;;;;;11.52;6.30;;;8.70;99.90;;;;;;5031927;28;20053;-40
2023/12/18 04:03:42;;;;;;;19.02;7.38;;;8.70;99.90;;;;;;5033260;28;20498;-41
2023/12/18 04:06:09;;;;;;;19.98;8.50;;;8.70;99.90;;;;;;5034010;28;20523;-42
2023/12/18 04:08:34;;;;;;;13.43;6.40;;;8.70;99.90;;;;;;5032390;28;20017;-43
2023/12/18 04:11:00;;;;;;;22.83;7.10;;;8.70;99.90;;;;;;5032569;28;20095;-40
2023/12/18 04:13:26;;;;;;;18.25;8.43;;;8.70;99.90;;;;;;5033282;28;20025;-45
2023/12/18 04:15:52;;;;;;;21.63;6.95;;;8.70;99.90;;;;;;5013776;28;20390;-44
2023/12/18 04:18:18;;;;;;;19.17;7.60;;;8.60;99.90;;;;;;5019999;28;20022;-40
2023/12/18 04:20:44;;;;;;;21.67;7.13;;;8.70;99.90;;;;;;5033533;28;20112;-41
2023/12/18 04:23:09;;;;;;;16.63;6.38;;;8.60;99.90;;;;;;5032403;28;20057;-42
2023/12/18 04:25:35;;;;;;;31.50;7.88;;;8.60;99.90;;;;;;5032961;28;20022;-40
2023/12/18 04:28:01;;;;;;;20.33;7.70;;;8.60;99.90;;;;;;5032769;28;20504;-42
2023/12/18 04:30:26;;;;;;;17.67;6.97;;;8.50;99.90;;;;;;5032226;28;20121;-41
2023/12/18 04:32:52;;;;;;;12.88;7.30;;;8.60;99.90;;;;;;5033072;28;20497;-46
2023/12/18 04:35:17;;;;;;;16.52;7.13;;;8.50;99.90;;;;;;5033242;28;20389;-52
2023/12/18 04:37:43;;;;;;;19.67;7.80;;;8.60;99.90;;;;;;5018677;28;20022;-42
2023/12/18 04:40:10;;;;;;;24.10;7.97;;;8.60;99.90;;;;;;5029193;28;20037;-41
2023/12/18 04:42:35;;;;;;;27.88;7.88;;;8.60;99.90;;;;;;5032576;28;20390;-42
2023/12/18 04:45:04;;;;;;;18.77;6.93;;;8.60;99.90;;;;;;5033093;28;20030;-42
2023/12/18 04:47:30;;;;;;;17.30;7.30;;;8.70;99.90;;;;;;5032525;28;20113;-45
2023/12/18 04:49:55;;;;;;;26.02;7.63;;;8.70;99.90;;;;;;5033024;28;20493;-40
2023/12/18 04:52:21;;;;;;;17.98;7.65;;;8.70;99.90;;;;;;5033207;28;20057;-41
2023/12/18 04:54:47;;;;;;;26.55;7.20;;;8.60;99.90;;;;;;5020948;28;20113;-42
2023/12/18 04:57:13;;;;;;;19.85;6.57;;;8.60;99.90;;;;;;5013300;28;20451;-43
2023/12/18 04:59:38;;;;;;;17.48;7.28;;;8.60;99.90;;;;;;5032672;28;20474;-41
2023/12/18 05:02:04;;;;;;;19.75;7.65;;;8.70;99.90;;;;;;5032289;28;20037;-43
2023/12/18 05:04:30;;;;;;;14.68;7.88;;;8.70;99.90;;;;;;5032234;28;20029;-44
2023/12/18 05:06:55;;;;;;;15.55;7.43;;;8.60;99.90;;;;;;5032839;28;20040;-43
2023/12/18 05:09:21;;;;;;;21.50;7.68;;;8.60;99.90;;;;;;5031888;28;20425;-42
2023/12/18 05:11:47;;;;;;;19.38;7.63;;;8.70;99.90;;;;;;5032490;28;20316;-41
2023/12/18 05:14:12;;;;;;;20.80;7.32;;;8.70;99.90;;;;;;5026699;28;20026;-49
2023/12/18 05:16:38;;;;;;;14.38;7.20;;;8.60;99.90;;;;;;5032887;28;20524;-41
2023/12/18 05:19:04;;;;;;;15.82;6.85;;;8.60;99.90;;;;;;5027552;28;20240;-43
2023/12/18 05:21:29;;;;;;;27.95;8.13;;;8.60;99.90;;;;;;5024123;28;20029;-44
2023/12/18 05:23:55;;;;;;;15.32;7.68;;;8.60;99.90;;;;;;5032023;28;20116;-44
2023/12/18 05:26:21;;;;;;;14.45;7.53;;;8.60;99.90;;;;;;5032702;28;20164;-45
2023/12/18 05:28:47;;;;;;;13.00;7.50;;;8.60;99.90;;;;;;5031999;28;20032;-40
2023/12/18 05:31:14;;;;;;;13.48;7.55;;;8.60;99.90;;;;;;5032488;28;20485;-41
2023/12/18 05:33:40;;;;;;;19.52;7.65;;;8.60;99.90;;;;;;5032064;28;20038;-42
2023/12/18 05:36:07;;;;;;;17.02;8.15;;;8.70;99.90;;;;;;5032551;28;20059;-42
2023/12/18 05:38:32;;;;;;;28.50;7.78;;;8.70;99.90;;;;;;5029415;28;20036;-42
2023/12/18 05:40:58;;;;;;;15.40;7.55;;;8.70;99.90;;;;;;5012793;28;20116;-43
2023/12/18 05:43:24;;;;;;;15.82;7.50;;;8.70;99.90;;;;;;5013069;28;20120;-41
2023/12/18 05:45:49;;;;;;;19.27;7.90;;;8.70;99.90;;;;;;5030080;28;20454;-40
2023/12/18 05:48:15;;;;;;;18.48;8.38;;;8.70;99.90;;;;;;5031749;28;20409;-42
2023/12/18 05:50:41;;;;;;;22.05;7.60;;;8.80;99.90;;;;;;5032355;28;20366;-40
2023/12/18 05:53:06;;;;;;;17.20;8.13;;;8.80;99.90;;;;;;5032134;28;20033;-41
2023/12/18 05:55:32;;;;;;;20.50;8.73;;;8.80;99.90;;;;;;5036018;28;20059;-50
2023/12/18 05:57:58;;;;;;;23.77;8.68;;;8.80;99.90;;;;;;5035977;28;20029;-40
2023/12/18 06:00:23;;;;;;;14.52;7.78;;;8.80;99.90;;;;;;5034955;28;20486;-42
2023/12/18 06:02:49;;;;;;;22.35;8.77;;;8.80;99.90;;;;;;5035804;28;20022;-41
2023/12/18 06:05:15;;;;;;;22.65;8.32;;;8.80;99.90;;;;;;5044788;28;20059;-41
2023/12/18 06:07:42;;;;;;;17.17;8.75;;;8.80;99.90;;;;;;5034320;28;20024;-41
2023/12/18 06:10:10;;;;;;;19.73;8.75;;;8.80;99.90;;;;;;5035030;28;20505;-42
2023/12/18 06:12:37;;;;;;;23.85;8.13;;;8.80;99.90;;;;;;5035777;28;20029;-40
2023/12/18 06:15:06;;;;;;;26.73;8.18;;;8.80;99.90;;;;;;5035372;28;20477;-45
2023/12/18 06:17:32;;;;;;;20.13;9.68;;;8.70;99.90;;;;;;5025133;28;20500;-43
2023/12/18 06:19:58;;;;;;;15.77;7.18;;;8.70;99.90;;;;;;5031019;28;20021;-43
2023/12/18 06:22:24;;;;;;;23.83;9.20;;;8.70;99.90;;;;;;5034630;28;20125;-66
2023/12/18 06:24:50;;;;;;;16.98;7.97;;;8.70;99.90;;;;;;5034921;28;20490;-43
2023/12/18 06:27:15;;;;;;;19.75;8.32;;;8.70;99.90;;;;;;5034968;28;20112;-45
2023/12/18 06:29:42;;;;;;;19.48;8.10;;;8.80;99.90;;;;;;5035896;28;20014;-39
2023/12/18 06:32:09;;;;;;;19.08;7.93;;;8.70;99.90;;;;;;5035026;28;20029;-44
2023/12/18 06:34:34;;;;;;;23.95;8.23;;;8.80;99.90;;;;;;5032767;28;20108;-42
2023/12/18 06:37:00;;;;;;;22.30;8.95;;;8.80;99.90;;;;;;5022844;28;20565;-41
2023/12/18 06:39:26;;;;;;;19.50;9.10;;;8.80;99.90;;;;;;5034870;28;20039;-60
2023/12/18 06:41:55;;;;;;;17.27;8.25;;;8.80;99.90;;;;;;5035226;28;20540;-40
2023/12/18 06:44:21;;;;;;;20.60;9.18;;;8.80;99.90;;;;;;5033530;28;20367;-42
2023/12/18 06:46:47;;;;;;;15.60;8.00;;;8.80;99.90;;;;;;5061713;28;20029;-44
2023/12/18 06:49:12;;;;;;;25.23;9.70;;;8.80;99.90;;;;;;5034892;28;20108;-44
2023/12/18 06:51:38;;;;;;;18.98;8.98;;;8.70;99.90;;;;;;5035116;28;20025;-45
2023/12/18 06:54:04;;;;;;;20.98;9.55;;;8.70;99.90;;;;;;5034564;28;20029;-40
2023/12/18 06:56:29;;;;;;;23.52;7.90;;;8.80;99.90;;;;;;5034435;28;20029;-40
2023/12/18 06:58:55;;;;;;;15.38;8.15;;;8.70;99.90;;;;;;5033428;28;20091;-41
2023/12/18 07:01:21;;;;;;;17.60;8.85;;;8.70;99.90;;;;;;5034349;28;20426;-41
2023/12/18 07:03:46;;;;;;;15.52;8.73;;;8.70;99.90;;;;;;5034448;28;20394;-41
2023/12/18 07:06:12;;;;;;;18.58;9.02;;;8.70;99.90;;;;;;5032149;28;20029;-40
2023/12/18 07:08:38;;;;;;;21.92;8.38;;;8.70;99.90;;;;;;5034212;28;20449;-44
2023/12/18 07:11:03;;;;;;;21.45;9.40;;;8.70;99.90;;;;;;5032259;28;20071;-42
2023/12/18 07:13:29;;;;;;;15.80;7.68;;;8.70;99.90;;;;;;5032597;28;20021;-41
2023/12/18 07:15:55;;;;;;;20.70;8.38;;;8.70;99.90;;;;;;5033929;28;20033;-68
2023/12/18 07:18:20;;;;;;;21.42;9.25;;;8.70;99.90;;;;;;5034747;28;20020;-42
2023/12/18 07:20:46;;;;;;;18.65;8.02;;;8.70;99.90;;;;;;5034548;28;20029;-61
2023/12/18 07:23:12;;;;;;;26.05;10.05;;;8.70;99.90;;;;;;5032458;28;20037;-42
2023/12/18 07:25:37;;;;;;;20.60;8.85;;;8.70;99.90;;;;;;5034105;28;20421;-45
2023/12/18 07:28:09;;;;;;;19.20;8.13;;;8.80;99.90;;;;;;5033874;28;20036;-43
2023/12/18 07:30:36;;;;;;;22.85;9.25;;;8.80;99.90;;;;;;5033484;28;20029;-41
2023/12/18 07:33:02;;;;;;;16.80;7.85;;;8.80;99.90;;;;;;5033207;28;20060;-45
2023/12/18 07:35:28;;;;;;;17.35;8.32;;;8.80;99.90;;;;;;5033221;28;20021;-41
2023/12/18 07:37:53;;;;;;;13.85;8.38;;;8.80;99.90;;;;;;5034353;28;20417;-43
2023/12/18 07:40:21;;;;;;;18.02;9.00;;;8.80;99.90;;;;;;5034535;28;20014;-44
2023/12/18 07:42:48;;;;;;;17.13;8.88;;;8.80;99.90;;;;;;5033630;28;20096;-44
2023/12/18 07:45:13;;;;;;;27.73;9.25;;;8.80;99.90;;;;;;5033889;28;20416;-40
2023/12/18 07:47:41;;;;;;;21.17;8.90;;;8.70;99.90;;;;;;5033917;28;20133;-40
2023/12/18 07:50:07;;;;;;;32.85;10.13;;;8.70;99.90;;;;;;5034055;28;20029;-40
2023/12/18 07:52:33;;;;;;;23.23;9.80;;;8.80;99.90;;;;;;5033809;28;20068;-43
2023/12/18 07:54:59;;;;;;;16.52;8.57;;;8.70;99.90;;;;;;5034262;28;20100;-44
2023/12/18 07:57:25;;;;;;;25.38;10.20;;;8.70;99.90;;;;;;5032802;28;20498;-41
2023/12/18 07:59:51;;;;;;;21.38;9.45;;;8.70;99.90;;;;;;5033423;28;20382;-44
2023/12/18 08:02:16;;;;;;;16.15;8.05;;;8.70;99.90;;;;;;5033506;28;20025;-41
2023/12/18 08:04:42;;;;;;;20.27;8.40;;;8.70;99.90;;;;;;5033370;28;20040;-42
2023/12/18 08:07:08;;;;;;;20.58;8.73;;;8.70;99.90;;;;;;5033032;28;20034;-41
2023/12/18 08:09:34;;;;;;;20.35;8.40;;;8.70;99.90;;;;;;5033926;28;20108;-40
2023/12/18 08:12:00;;;;;;;15.73;8.32;;;8.70;99.90;;;;;;5032954;28;20045;-49
2023/12/18 08:14:25;;;;;;;24.15;9.43;;;8.70;99.90;;;;;;5033695;28;20092;-41
2023/12/18 08:16:51;;;;;;;22.30;9.15;;;8.70;99.90;;;;;;5032722;28;20083;-43
2023/12/18 08:19:17;;;;;;;30.52;9.77;;;8.70;99.90;;;;;;5033516;28;20026;-40
2023/12/18 08:21:43;;;;;;;18.23;8.25;;;8.80;99.90;;;;;;5033258;28;20061;-41
2023/12/18 08:24:09;;;;;;;18.63;8.52;;;8.70;99.90;;;;;;5033414;28;20029;-41
2023/12/18 08:26:35;;;;;;;26.85;9.25;;;8.70;99.90;;;;;;5033426;28;20083;-40
2023/12/18 08:29:00;;;;;;;19.13;8.43;;;8.70;99.90;;;;;;5033035;28;20030;-39
2023/12/18 08:31:26;;;;;;;15.68;7.95;;;8.70;99.90;;;;;;5031987;28;20489;-41
2023/12/18 08:33:52;;;;;;;22.13;8.43;;;8.70;99.90;;;;;;5048555;28;20231;-47
2023/12/18 08:36:18;;;;;;;20.83;8.93;;;8.80;99.90;;;;;;5033109;28;20029;-39
2023/12/18 08:38:47;;;;;;;16.63;8.75;;;8.80;99.90;;;;;;5031718;28;20494;-42
2023/12/18 08:41:12;;;;;;;15.90;8.00;;;8.80;99.90;;;;;;5033192;28;20040;-42
2023/12/18 08:43:38;;;;;;;20.75;8.55;;;8.80;99.90;;;;;;5032885;28;20339;-41
2023/12/18 08:46:03;;;;;;;19.02;8.75;;;8.80;99.90;;;;;;5032779;28;20387;-41
2023/12/18 08:48:29;;;;;;;17.85;9.00;;;8.80;99.90;;;;;;5032698;28;20021;-40
2023/12/18 08:50:55;;;;;;;24.67;8.60;;;8.80;99.90;;;;;;5032513;28;20067;-43
2023/12/18 08:53:20;;;;;;;25.75;9.45;;;8.80;99.90;;;;;;5032735;28;20025;-41
2023/12/18 08:55:46;;;;;;;18.58;9.02;;;8.80;99.90;;;;;;5032493;28;20022;-42
2023/12/18 08:58:11;;;;;;;20.88;8.85;;;8.80;99.90;;;;;;5031583;28;20375;-46
2023/12/18 09:00:37;;;;;;;24.58;10.15;;;8.90;99.90;;;;;;5032681;28;20017;-43
2023/12/18 09:03:04;;;;;;;24.40;9.48;;;8.90;99.90;;;;;;5032567;28;20025;-44
2023/12/18 09:05:30;;;;;;;21.63;8.55;;;8.90;99.90;;;;;;5032471;28;20022;-65
2023/12/18 09:07:56;;;;;;;18.20;8.68;;;8.90;99.90;;;;;;5032877;28;20060;-41
2023/12/18 09:10:22;;;;;;;16.70;8.80;;;8.90;99.90;;;;;;5032620;28;20053;-41
2023/12/18 09:12:49;;;;;;;25.38;8.55;;;8.90;99.90;;;;;;5032419;28;20029;-42
2023/12/18 09:15:16;;;;;;;19.73;9.13;;;9.00;99.90;;;;;;5031236;28;20025;-43
2023/12/18 09:17:41;;;;;;;22.83;9.73;;;9.00;99.90;;;;;;5032644;28;20021;-40
2023/12/18 09:20:08;;;;;;;20.58;8.35;;;9.00;99.90;;;;;;5032711;28;20028;-40
2023/12/18 09:22:34;;;;;;;18.67;8.77;;;9.00;99.90;;;;;;5032255;28;20033;-41
2023/12/18 09:25:00;;;;;;;24.90;10.10;;;9.00;99.90;;;;;;5032654;28;20030;-39
2023/12/18 09:27:26;;;;;;;22.00;8.20;;;9.00;99.90;;;;;;5034252;28;20389;-39
2023/12/18 09:29:51;;;;;;;22.45;8.70;;;8.90;99.90;;;;;;5036542;28;20414;-43
2023/12/18 09:32:17;;;;;;;21.58;10.88;;;8.90;99.90;;;;;;5036622;28;20033;-41
2023/12/18 09:34:42;;;;;;;25.55;9.57;;;8.90;99.90;;;;;;5036903;28;20028;-47
2023/12/18 09:37:08;;;;;;;22.75;9.32;;;8.90;99.90;;;;;;5036298;28;20025;-39
2023/12/18 09:39:34;;;;;;;20.42;8.18;;;8.90;99.90;;;;;;5036306;28;20041;-41
2023/12/18 09:42:01;;;;;;;22.88;9.13;;;9.00;99.90;;;;;;5036607;28;20033;-40
2023/12/18 09:44:36;;;;;;;20.63;10.10;;;9.00;99.90;;;;;;5035960;28;20537;-45
2023/12/18 09:47:03;;;;;;;17.80;8.77;;;9.00;99.90;;;;;;5036525;28;20025;-44
2023/12/18 09:49:29;;;;;;;20.92;8.65;;;9.00;99.90;;;;;;5036373;28;20037;-42
2023/12/18 09:52:00;;;;;;;26.35;8.43;;;9.10;99.90;;;;;;5036000;28;20040;-43
2023/12/18 09:54:27;;;;;;;22.33;7.97;;;9.00;99.90;;;;;;5018627;28;20179;-42
2023/12/18 09:56:55;;;;;;;16.98;8.75;;;9.10;99.90;;;;;;5036164;28;20056;-41
2023/12/18 09:59:21;;;;;;;20.77;8.98;;;9.20;99.90;;;;;;5035704;28;20026;-48
2023/12/18 10:01:46;;;;;;;22.30;9.23;;;9.30;99.90;;;;;;5035886;28;20394;-42
2023/12/18 10:04:12;;;;;;;14.05;8.13;;;9.40;99.90;;;;;;5036285;28;20040;-41
2023/12/18 10:06:39;;;;;;;22.17;8.48;;;9.40;99.90;;;;;;5036023;28;20061;-61
2023/12/18 10:09:15;;;;;;;22.73;8.75;;;9.40;99.90;;;;;;5036088;28;20263;-42
2023/12/18 10:11:47;;;;;;;24.38;8.50;;;9.40;99.90;;;;;;5035744;28;20382;-47
2023/12/18 10:14:16;;;;;;;18.20;8.40;;;9.50;99.90;;;;;;5027168;28;20025;-41
2023/12/18 10:16:42;;;;;;;18.60;8.93;;;9.50;99.90;;;;;;5035659;28;20022;-41
2023/12/18 10:19:09;;;;;;;26.77;8.65;;;9.50;99.90;;;;;;5035849;28;20025;-41
2023/12/18 10:21:37;;;;;;;30.10;8.63;;;9.60;99.90;;;;;;5035803;28;20029;-45
2023/12/18 10:24:04;;;;;;;22.00;8.48;;;9.60;99.90;;;;;;5035665;28;20413;-53
2023/12/18 10:26:31;;;;;;;22.25;8.20;;;9.60;99.90;;;;;;5035471;28;20105;-43
2023/12/18 10:28:57;;;;;;;15.73;8.13;;;9.60;99.90;;;;;;5034189;28;20030;-44
2023/12/18 10:31:24;;;;;;;16.52;8.70;;;9.60;99.90;;;;;;5035484;28;20528;-42
2023/12/18 10:34:09;;;;;;;16.80;8.65;;;9.60;99.90;;;;;;5035304;28;20029;-44
2023/12/18 10:36:36;;;;;;;16.30;8.15;;;9.60;99.90;;;;;;5035556;28;20021;-44
2023/12/18 10:39:04;;;;;;;20.13;9.18;;;9.70;99.90;;;;;;5035104;28;20025;-41
2023/12/18 10:41:34;;;;;;;27.80;9.35;;;9.70;99.90;;;;;;5035445;28;20042;-45
2023/12/18 10:44:00;;;;;;;18.77;8.10;;;9.80;99.90;;;;;;5015613;28;20030;-39
2023/12/18 10:46:27;;;;;;;21.05;8.85;;;9.70;99.90;;;;;;5060196;28;20067;-39
2023/12/18 10:48:54;;;;;;;19.10;8.23;;;9.70;99.90;;;;;;5033952;28;20397;-41
2023/12/18 10:51:20;;;;;;;21.65;7.88;;;9.80;99.90;;;;;;5035219;28;20509;-42
2023/12/18 10:53:48;;;;;;;21.63;8.93;;;9.70;99.90;;;;;;5035269;28;20022;-40
2023/12/18 10:56:16;;;;;;;18.65;7.97;;;9.80;99.90;;;;;;5035115;28;20021;-43
2023/12/18 10:58:43;;;;;;;20.27;8.10;;;9.80;99.90;;;;;;5034469;28;20044;-44
2023/12/18 11:01:09;;;;;;;16.63;7.13;;;9.80;99.90;;;;;;5033778;28;20025;-54
2023/12/18 11:03:36;;;;;;;18.77;7.93;;;9.90;99.90;;;;;;5034512;28;20442;-54
2023/12/18 11:06:02;;;;;;;19.92;7.88;;;9.90;99.90;;;;;;5033755;28;20478;-55
2023/12/18 11:08:28;;;;;;;19.00;7.40;;;9.90;99.90;;;;;;5034844;28;20043;-56
2023/12/18 11:10:58;;;;;;;21.23;7.80;;;9.90;99.90;;;;;;5034584;28;20113;-56
2023/12/18 11:13:27;;;;;;;22.38;7.82;;;10.00;99.90;;;;;;5034221;28;20021;-54
2023/12/18 11:15:58;;;;;;;21.65;7.40;;;10.10;99.90;;;;;;5033220;28;20371;-55
2023/12/18 11:18:44;;;;;;;16.50;7.50;;;10.10;99.90;;;;;;5034205;28;20025;-55
2023/12/18 11:21:10;;;;;;;22.90;8.20;;;10.20;99.90;;;;;;5034652;28;20040;-56
2023/12/18 11:23:39;;;;;;;15.70;7.07;;;10.10;99.90;;;;;;5034188;28;20501;-54
2023/12/18 11:26:10;;;;;;;17.50;8.07;;;10.20;99.90;;;;;;5034594;28;20037;-60
2023/12/18 11:28:36;;;;;;;18.10;6.75;;;10.20;99.90;;;;;;5034483;28;20497;-67
2023/12/18 11:31:05;;;;;;;18.95;9.23;;;10.30;99.90;;;;;;5033937;28;20022;-53
2023/12/18 11:33:31;;;;;;;17.38;7.50;;;10.30;99.90;;;;;;5033271;28;20049;-54
2023/12/18 11:35:57;;;;;;;16.30;7.18;;;10.20;99.90;;;;;;5034242;28;20478;-56
2023/12/18 11:38:24;;;;;;;28.02;9.40;;;10.20;99.90;;;;;;5034117;28;20041;-56
2023/12/18 11:40:55;;;;;;;17.70;7.20;;;10.20;99.90;;;;;;5033049;28;20505;-55
2023/12/18 11:43:37;;;;;;;18.38;6.95;;;10.30;99.90;;;;;;5034376;28;20478;-60
2023/12/18 11:46:07;;;;;;;21.27;8.68;;;10.30;99.90;;;;;;5034420;28;20428;-55
2023/12/18 11:48:33;;;;;;;16.83;8.13;;;10.20;99.90;;;;;;5034151;28;20036;-56
2023/12/18 11:51:01;;;;;;;24.25;7.90;;;10.10;99.90;;;;;;5033020;28;20025;-58
2023/12/18 11:53:26;;;;;;;17.33;8.10;;;10.10;99.90;;;;;;5034052;28;20029;-60
2023/12/18 11:55:53;;;;;;;22.02;8.15;;;10.20;99.90;;;;;;5033673;28;20414;-54
2023/12/18 11:58:20;;;;;;;23.58;7.95;;;10.20;99.90;;;;;;5033947;28;20405;-54
2023/12/18 12:00:47;;;;;;;24.10;8.30;;;10.20;99.90;;;;;;5033727;28;20080;-54
2023/12/18 12:03:13;;;;;;;17.25;7.18;;;10.30;99.90;;;;;;5034144;28;20408;-53
2023/12/18 12:05:39;;;;;;;19.13;9.00;;;10.30;99.90;;;;;;5033810;28;20094;-57
2023/12/18 12:08:06;;;;;;;22.00;6.95;;;10.40;99.90;;;;;;5033651;28;20029;-54
2023/12/18 12:10:42;;;;;;;20.73;7.47;;;10.30;99.90;;;;;;5033395;28;20069;-58
2023/12/18 12:13:25;;;;;;;17.95;7.95;;;10.20;99.90;;;;;;5032945;28;20052;-54
2023/12/18 12:15:51;;;;;;;17.00;8.15;;;10.30;99.90;;;;;;5033488;28;20021;-51
2023/12/18 12:18:16;;;;;;;19.38;9.18;;;10.30;99.90;;;;;;5033628;28;20028;-54
2023/12/18 12:20:42;;;;;;;22.33;7.18;;;10.30;99.90;;;;;;5033524;28;20456;-55
2023/12/18 12:23:08;;;;;;;15.88;8.30;;;10.30;99.90;;;;;;5031993;28;20021;-53
2023/12/18 12:25:33;;;;;;;19.95;7.57;;;10.40;99.90;;;;;;5033523;28;20025;-55
2023/12/18 12:27:59;;;;;;;19.70;9.05;;;10.30;99.90;;;;;;5033118;28;20033;-70
2023/12/18 12:30:25;;;;;;;24.35;7.95;;;10.30;99.90;;;;;;5033549;28;20024;-56
2023/12/18 12:32:52;;;;;;;12.68;7.70;;;10.30;99.90;;;;;;5033121;28;20030;-55
2023/12/18 12:35:18;;;;;;;19.40;8.03;;;10.20;99.90;;;;;;5033330;28;20066;-54
2023/12/18 12:37:47;;;;;;;16.83;7.25;;;10.20;99.90;;;;;;5033501;28;20343;-54
2023/12/18 12:40:13;;;;;;;16.17;7.57;;;10.20;99.90;;;;;;5033241;28;20105;-53